Погода Бойтувана неделю

Сан-Паулу, Бразилия

13 - 19 июня
  • 13июня
    Сегодня
    +14°
    +28°
    Ясно и безоблачно
    ВремяПогодаТемператураВлажностьДавлениеВетер, м/сВероятность осадков
    00:00Ясно и безоблачно+17°C63 %712 мм2.1 м/с5 %
    03:00Ясно и безоблачно+15°C69 %711 мм2.2 м/с5 %
    06:00Ясно и безоблачно+14°C74 %711 мм2.2 м/с5 %
    09:00Ясно и безоблачно+18°C56 %713 мм1.5 м/с5 %
    12:00Ясно и безоблачно+26°C35 %713 мм3.8 м/с5 %
    15:00Ясно и безоблачно+28°C26 %711 мм4.2 м/с5 %
    18:00Ясно и безоблачно+23°C38 %710 мм2.6 м/с5 %
    21:00Ясно и безоблачно+21°C42 %711 мм3.6 м/с5 %
  • 14июня
    Пятница
    +14°
    +29°
    Ясно и безоблачно
    ВремяПогодаТемператураВлажностьДавлениеВетер, м/сВероятность осадков
    00:00Ясно и безоблачно+18°C56 %712 мм2.6 м/с5 %
    03:00Ясно и безоблачно+16°C67 %711 мм2.9 м/с5 %
    06:00Ясно и безоблачно+15°C68 %711 мм3.5 м/с5 %
    09:00Ясно и безоблачно+19°C54 %713 мм3.6 м/с5 %
    12:00Ясно и безоблачно+27°C34 %713 мм6.0 м/с5 %
    15:00Ясно и безоблачно+29°C32 %711 мм4.1 м/с5 %
    18:00Ясно и безоблачно+24°C45 %711 мм2.4 м/с5 %
    21:00Ясно и безоблачно+22°C53 %711 мм3.7 м/с5 %
  • 15июня
    Суббота
    +16°
    +30°
    Ясно и безоблачно
    ВремяПогодаТемператураВлажностьДавлениеВетер, м/сВероятность осадков
    00:00Ясно и безоблачно+19°C69 %713 мм2.4 м/с5 %
    03:00Ясно и безоблачно+17°C80 %712 мм2.0 м/с5 %
    06:00Ясно и безоблачно+15°C83 %712 мм2.1 м/с5 %
    09:00Ясно и безоблачно+20°C62 %714 мм2.5 м/с5 %
    12:00Ясно и безоблачно+27°C39 %714 мм4.4 м/с5 %
    15:00Ясно и безоблачно+29°C32 %712 мм3.8 м/с5 %
    18:00Ясно и безоблачно+24°C48 %712 мм2.5 м/с5 %
    21:00Ясно и безоблачно+23°C47 %712 мм1.2 м/с5 %
  • 16июня
    Воскресенье
    +14°
    +30°
    Ясно и безоблачно
    ВремяПогодаТемператураВлажностьДавлениеВетер, м/сВероятность осадков
    00:00Ясно и безоблачно+20°C64 %712 мм1.6 м/с5 %
    03:00Ясно и безоблачно+18°C73 %711 мм2.1 м/с5 %
    06:00Ясно и безоблачно+17°C79 %711 мм2.1 м/с5 %
    09:00Ясно и безоблачно+20°C64 %713 мм2.2 м/с5 %
    12:00Практически безоблачно+28°C37 %712 мм3.9 м/с5 %
    15:00Ясно и безоблачно+30°C31 %710 мм3.5 м/с5 %
    18:00Ясно и безоблачно+26°C46 %710 мм2.0 м/с5 %
    21:00Ясно и безоблачно+23°C51 %710 мм1.6 м/с5 %
Мы используем cookies
Соглашаюсь